sensor_id;sensor_type;location;lat;lon;timestamp;P1;durP1;ratioP1;P2;durP2;ratioP2
52033;SDS011;38045;52.988;6.536;2022-08-01T00:00:17;13.48;;;12.10;;
52033;SDS011;38045;52.988;6.536;2022-08-01T00:02:43;12.52;;;11.00;;
52033;SDS011;38045;52.988;6.536;2022-08-01T00:05:09;12.27;;;9.93;;
52033;SDS011;38045;52.988;6.536;2022-08-01T00:07:35;14.85;;;12.73;;
52033;SDS011;38045;52.988;6.536;2022-08-01T00:10:02;15.02;;;13.18;;
52033;SDS011;38045;52.988;6.536;2022-08-01T00:12:28;14.23;;;11.85;;
52033;SDS011;38045;52.988;6.536;2022-08-01T00:14:54;11.43;;;9.90;;
52033;SDS011;38045;52.988;6.536;2022-08-01T00:17:19;14.73;;;11.32;;
52033;SDS011;38045;52.988;6.536;2022-08-01T00:19:45;12.88;;;10.73;;
52033;SDS011;38045;52.988;6.536;2022-08-01T00:22:11;14.63;;;11.25;;
52033;SDS011;38045;52.988;6.536;2022-08-01T00:24:36;12.98;;;11.15;;
52033;SDS011;38045;52.988;6.536;2022-08-01T00:27:02;12.80;;;11.38;;
52033;SDS011;38045;52.988;6.536;2022-08-01T00:29:27;12.43;;;9.55;;
52033;SDS011;38045;52.988;6.536;2022-08-01T00:31:53;10.88;;;9.63;;
52033;SDS011;38045;52.988;6.536;2022-08-01T00:34:18;12.38;;;10.02;;
52033;SDS011;38045;52.988;6.536;2022-08-01T00:36:44;10.63;;;9.52;;
52033;SDS011;38045;52.988;6.536;2022-08-01T00:39:10;14.45;;;11.68;;
52033;SDS011;38045;52.988;6.536;2022-08-01T00:41:35;11.55;;;9.65;;
52033;SDS011;38045;52.988;6.536;2022-08-01T00:44:04;13.15;;;8.95;;
52033;SDS011;38045;52.988;6.536;2022-08-01T00:46:31;11.55;;;9.07;;
52033;SDS011;38045;52.988;6.536;2022-08-01T00:48:57;11.30;;;10.05;;
52033;SDS011;38045;52.988;6.536;2022-08-01T00:51:25;9.02;;;8.13;;
52033;SDS011;38045;52.988;6.536;2022-08-01T00:53:51;10.77;;;8.38;;
52033;SDS011;38045;52.988;6.536;2022-08-01T00:56:18;10.85;;;8.23;;
52033;SDS011;38045;52.988;6.536;2022-08-01T00:58:45;10.18;;;6.85;;
52033;SDS011;38045;52.988;6.536;2022-08-01T01:01:11;8.88;;;7.68;;
52033;SDS011;38045;52.988;6.536;2022-08-01T01:03:36;11.32;;;9.63;;
52033;SDS011;38045;52.988;6.536;2022-08-01T01:06:10;9.30;;;7.60;;
52033;SDS011;38045;52.988;6.536;2022-08-01T01:08:46;10.10;;;8.00;;
52033;SDS011;38045;52.988;6.536;2022-08-01T01:11:35;10.88;;;8.40;;
52033;SDS011;38045;52.988;6.536;2022-08-01T01:14:10;7.93;;;6.88;;
52033;SDS011;38045;52.988;6.536;2022-08-01T01:16:44;11.02;;;7.32;;
52033;SDS011;38045;52.988;6.536;2022-08-01T01:19:13;8.70;;;6.43;;
52033;SDS011;38045;52.988;6.536;2022-08-01T01:22:30;10.13;;;6.85;;
52033;SDS011;38045;52.988;6.536;2022-08-01T01:27:29;6.70;;;5.75;;
52033;SDS011;38045;52.988;6.536;2022-08-01T01:30:04;3.22;;;2.92;;
52033;SDS011;38045;52.988;6.536;2022-08-01T01:32:35;4.38;;;3.28;;
52033;SDS011;38045;52.988;6.536;2022-08-01T01:35:17;3.47;;;3.17;;
52033;SDS011;38045;52.988;6.536;2022-08-01T01:37:49;3.53;;;3.22;;
52033;SDS011;38045;52.988;6.536;2022-08-01T01:40:19;4.78;;;3.55;;
52033;SDS011;38045;52.988;6.536;2022-08-01T01:42:45;3.33;;;3.03;;
52033;SDS011;38045;52.988;6.536;2022-08-01T01:45:12;5.50;;;3.63;;
52033;SDS011;38045;52.988;6.536;2022-08-01T01:47:38;5.75;;;3.60;;
52033;SDS011;38045;52.988;6.536;2022-08-01T01:50:06;4.38;;;3.67;;
52033;SDS011;38045;52.988;6.536;2022-08-01T01:52:34;4.78;;;3.75;;
52033;SDS011;38045;52.988;6.536;2022-08-01T01:55:01;4.05;;;3.55;;
52033;SDS011;38045;52.988;6.536;2022-08-01T01:57:32;4.60;;;3.92;;
52033;SDS011;38045;52.988;6.536;2022-08-01T02:00:00;4.95;;;4.15;;
52033;SDS011;38045;52.988;6.536;2022-08-01T02:02:27;4.05;;;3.70;;
52033;SDS011;38045;52.988;6.536;2022-08-01T02:04:53;5.40;;;4.90;;
52033;SDS011;38045;52.988;6.536;2022-08-01T02:07:24;4.10;;;3.38;;
52033;SDS011;38045;52.988;6.536;2022-08-01T02:09:50;4.75;;;4.03;;
52033;SDS011;38045;52.988;6.536;2022-08-01T02:12:17;5.70;;;4.35;;
52033;SDS011;38045;52.988;6.536;2022-08-01T02:14:46;4.60;;;4.00;;
52033;SDS011;38045;52.988;6.536;2022-08-01T02:17:15;5.63;;;4.40;;
52033;SDS011;38045;52.988;6.536;2022-08-01T02:19:43;5.70;;;3.85;;
52033;SDS011;38045;52.988;6.536;2022-08-01T02:22:10;3.53;;;3.22;;
52033;SDS011;38045;52.988;6.536;2022-08-01T02:27:15;5.53;;;3.88;;
52033;SDS011;38045;52.988;6.536;2022-08-01T02:32:26;6.28;;;2.97;;
52033;SDS011;38045;52.988;6.536;2022-08-01T02:34:56;5.50;;;3.00;;
52033;SDS011;38045;52.988;6.536;2022-08-01T02:39:52;5.13;;;1.92;;
52033;SDS011;38045;52.988;6.536;2022-08-01T02:42:19;4.75;;;1.67;;
52033;SDS011;38045;52.988;6.536;2022-08-01T02:44:47;6.35;;;3.08;;
52033;SDS011;38045;52.988;6.536;2022-08-01T02:47:13;3.53;;;2.00;;
52033;SDS011;38045;52.988;6.536;2022-08-01T02:49:42;10.50;;;2.38;;
52033;SDS011;38045;52.988;6.536;2022-08-01T02:52:12;5.53;;;1.63;;
52033;SDS011;38045;52.988;6.536;2022-08-01T02:54:40;2.53;;;1.98;;
52033;SDS011;38045;52.988;6.536;2022-08-01T02:57:08;2.85;;;1.92;;
52033;SDS011;38045;52.988;6.536;2022-08-01T02:59:36;6.07;;;2.20;;
52033;SDS011;38045;52.988;6.536;2022-08-01T03:02:03;11.73;;;3.22;;
52033;SDS011;38045;52.988;6.536;2022-08-01T03:04:30;11.07;;;3.78;;
52033;SDS011;38045;52.988;6.536;2022-08-01T03:06:58;4.35;;;1.95;;
52033;SDS011;38045;52.988;6.536;2022-08-01T03:09:27;5.90;;;2.60;;
52033;SDS011;38045;52.988;6.536;2022-08-01T03:11:54;7.63;;;2.20;;
52033;SDS011;38045;52.988;6.536;2022-08-01T03:14:23;6.50;;;2.55;;
52033;SDS011;38045;52.988;6.536;2022-08-01T03:16:51;4.72;;;2.80;;
52033;SDS011;38045;52.988;6.536;2022-08-01T03:19:20;3.05;;;2.33;;
52033;SDS011;38045;52.988;6.536;2022-08-01T03:21:49;4.72;;;2.28;;
52033;SDS011;38045;52.988;6.536;2022-08-01T03:24:15;4.20;;;1.85;;
52033;SDS011;38045;52.988;6.536;2022-08-01T03:26:43;11.90;;;4.07;;
52033;SDS011;38045;52.988;6.536;2022-08-01T03:29:12;2.65;;;2.45;;
52033;SDS011;38045;52.988;6.536;2022-08-01T03:31:43;8.35;;;2.58;;
52033;SDS011;38045;52.988;6.536;2022-08-01T03:34:11;4.95;;;2.42;;
52033;SDS011;38045;52.988;6.536;2022-08-01T03:36:46;3.55;;;2.40;;
52033;SDS011;38045;52.988;6.536;2022-08-01T03:39:14;5.28;;;2.83;;
52033;SDS011;38045;52.988;6.536;2022-08-01T03:41:43;5.13;;;2.72;;
52033;SDS011;38045;52.988;6.536;2022-08-01T03:44:16;6.43;;;2.88;;
52033;SDS011;38045;52.988;6.536;2022-08-01T03:46:48;9.52;;;3.28;;
52033;SDS011;38045;52.988;6.536;2022-08-01T03:49:23;7.80;;;3.50;;
52033;SDS011;38045;52.988;6.536;2022-08-01T03:51:50;10.40;;;3.85;;
52033;SDS011;38045;52.988;6.536;2022-08-01T03:54:23;5.95;;;3.13;;
52033;SDS011;38045;52.988;6.536;2022-08-01T03:56:50;7.97;;;2.75;;
52033;SDS011;38045;52.988;6.536;2022-08-01T03:59:17;7.85;;;3.55;;
52033;SDS011;38045;52.988;6.536;2022-08-01T04:01:44;6.07;;;3.35;;
52033;SDS011;38045;52.988;6.536;2022-08-01T04:04:11;15.82;;;4.40;;
52033;SDS011;38045;52.988;6.536;2022-08-01T04:06:40;6.90;;;3.38;;
52033;SDS011;38045;52.988;6.536;2022-08-01T04:09:09;7.75;;;2.80;;
52033;SDS011;38045;52.988;6.536;2022-08-01T04:11:35;11.77;;;4.75;;
52033;SDS011;38045;52.988;6.536;2022-08-01T04:14:01;8.88;;;3.42;;
52033;SDS011;38045;52.988;6.536;2022-08-01T04:16:27;13.13;;;3.78;;
52033;SDS011;38045;52.988;6.536;2022-08-01T04:18:52;13.10;;;5.50;;
52033;SDS011;38045;52.988;6.536;2022-08-01T04:21:18;8.23;;;3.95;;
52033;SDS011;38045;52.988;6.536;2022-08-01T04:23:47;6.30;;;2.67;;
52033;SDS011;38045;52.988;6.536;2022-08-01T04:26:16;10.87;;;4.07;;
52033;SDS011;38045;52.988;6.536;2022-08-01T04:28:43;8.85;;;4.65;;
52033;SDS011;38045;52.988;6.536;2022-08-01T04:31:09;10.95;;;4.43;;
52033;SDS011;38045;52.988;6.536;2022-08-01T04:33:38;10.63;;;3.65;;
52033;SDS011;38045;52.988;6.536;2022-08-01T04:36:07;12.02;;;4.20;;
52033;SDS011;38045;52.988;6.536;2022-08-01T04:38:35;4.88;;;2.75;;
52033;SDS011;38045;52.988;6.536;2022-08-01T04:41:02;8.68;;;4.97;;
52033;SDS011;38045;52.988;6.536;2022-08-01T04:45:57;11.10;;;3.83;;
52033;SDS011;38045;52.988;6.536;2022-08-01T04:48:23;7.85;;;3.65;;
52033;SDS011;38045;52.988;6.536;2022-08-01T04:50:50;12.55;;;3.85;;
52033;SDS011;38045;52.988;6.536;2022-08-01T04:53:16;13.55;;;4.18;;
52033;SDS011;38045;52.988;6.536;2022-08-01T04:55:44;9.63;;;4.00;;
52033;SDS011;38045;52.988;6.536;2022-08-01T04:58:11;10.52;;;4.75;;
52033;SDS011;38045;52.988;6.536;2022-08-01T05:00:37;8.18;;;3.20;;
52033;SDS011;38045;52.988;6.536;2022-08-01T05:03:03;7.38;;;3.30;;
52033;SDS011;38045;52.988;6.536;2022-08-01T05:05:29;10.25;;;3.40;;
52033;SDS011;38045;52.988;6.536;2022-08-01T05:07:55;4.72;;;3.25;;
52033;SDS011;38045;52.988;6.536;2022-08-01T05:10:21;6.07;;;3.83;;
52033;SDS011;38045;52.988;6.536;2022-08-01T05:12:47;7.50;;;4.82;;
52033;SDS011;38045;52.988;6.536;2022-08-01T05:15:12;8.20;;;3.13;;
52033;SDS011;38045;52.988;6.536;2022-08-01T05:17:38;12.45;;;3.47;;
52033;SDS011;38045;52.988;6.536;2022-08-01T05:20:03;14.82;;;4.35;;
52033;SDS011;38045;52.988;6.536;2022-08-01T05:22:31;8.23;;;3.75;;
52033;SDS011;38045;52.988;6.536;2022-08-01T05:24:57;9.68;;;3.38;;
52033;SDS011;38045;52.988;6.536;2022-08-01T05:27:24;9.88;;;3.85;;
52033;SDS011;38045;52.988;6.536;2022-08-01T05:29:50;10.25;;;4.13;;
52033;SDS011;38045;52.988;6.536;2022-08-01T05:32:16;10.10;;;3.97;;
52033;SDS011;38045;52.988;6.536;2022-08-01T05:34:42;7.57;;;4.00;;
52033;SDS011;38045;52.988;6.536;2022-08-01T05:37:08;13.77;;;3.92;;
52033;SDS011;38045;52.988;6.536;2022-08-01T05:39:33;10.00;;;3.22;;
52033;SDS011;38045;52.988;6.536;2022-08-01T05:41:59;12.30;;;4.22;;
52033;SDS011;38045;52.988;6.536;2022-08-01T05:44:24;7.00;;;3.47;;
52033;SDS011;38045;52.988;6.536;2022-08-01T05:46:50;6.25;;;3.53;;
52033;SDS011;38045;52.988;6.536;2022-08-01T05:49:16;11.35;;;3.70;;
52033;SDS011;38045;52.988;6.536;2022-08-01T05:51:42;9.55;;;5.07;;
52033;SDS011;38045;52.988;6.536;2022-08-01T05:54:07;7.60;;;3.95;;
52033;SDS011;38045;52.988;6.536;2022-08-01T05:56:33;9.75;;;3.13;;
52033;SDS011;38045;52.988;6.536;2022-08-01T05:58:59;14.15;;;4.72;;
52033;SDS011;38045;52.988;6.536;2022-08-01T06:01:24;10.40;;;4.07;;
52033;SDS011;38045;52.988;6.536;2022-08-01T06:03:50;14.88;;;5.20;;
52033;SDS011;38045;52.988;6.536;2022-08-01T06:06:17;18.75;;;4.72;;
52033;SDS011;38045;52.988;6.536;2022-08-01T06:08:42;6.50;;;3.72;;
52033;SDS011;38045;52.988;6.536;2022-08-01T06:11:08;7.43;;;2.80;;
52033;SDS011;38045;52.988;6.536;2022-08-01T06:13:33;16.67;;;4.15;;
52033;SDS011;38045;52.988;6.536;2022-08-01T06:15:59;10.90;;;4.25;;
52033;SDS011;38045;52.988;6.536;2022-08-01T06:18:25;11.63;;;3.33;;
52033;SDS011;38045;52.988;6.536;2022-08-01T06:20:50;9.55;;;3.03;;
52033;SDS011;38045;52.988;6.536;2022-08-01T06:23:16;12.38;;;3.80;;
52033;SDS011;38045;52.988;6.536;2022-08-01T06:25:42;14.68;;;4.18;;
52033;SDS011;38045;52.988;6.536;2022-08-01T06:28:08;10.02;;;2.90;;
52033;SDS011;38045;52.988;6.536;2022-08-01T06:30:34;10.07;;;3.50;;
52033;SDS011;38045;52.988;6.536;2022-08-01T06:32:59;11.45;;;3.83;;
52033;SDS011;38045;52.988;6.536;2022-08-01T06:35:25;18.67;;;5.07;;
52033;SDS011;38045;52.988;6.536;2022-08-01T06:37:52;13.52;;;5.40;;
52033;SDS011;38045;52.988;6.536;2022-08-01T06:40:17;16.83;;;5.13;;
52033;SDS011;38045;52.988;6.536;2022-08-01T06:42:43;18.88;;;4.72;;
52033;SDS011;38045;52.988;6.536;2022-08-01T06:45:11;16.67;;;3.95;;
52033;SDS011;38045;52.988;6.536;2022-08-01T06:47:38;11.57;;;3.60;;
52033;SDS011;38045;52.988;6.536;2022-08-01T06:50:04;17.75;;;5.25;;
52033;SDS011;38045;52.988;6.536;2022-08-01T06:52:31;23.25;;;5.65;;
52033;SDS011;38045;52.988;6.536;2022-08-01T06:54:57;23.65;;;5.88;;
52033;SDS011;38045;52.988;6.536;2022-08-01T06:57:23;14.48;;;5.32;;
52033;SDS011;38045;52.988;6.536;2022-08-01T06:59:48;12.82;;;3.63;;
52033;SDS011;38045;52.988;6.536;2022-08-01T07:02:14;10.13;;;3.65;;
52033;SDS011;38045;52.988;6.536;2022-08-01T07:04:40;13.18;;;4.53;;
52033;SDS011;38045;52.988;6.536;2022-08-01T07:07:05;17.20;;;4.78;;
52033;SDS011;38045;52.988;6.536;2022-08-01T07:09:31;17.88;;;4.72;;
52033;SDS011;38045;52.988;6.536;2022-08-01T07:11:56;19.83;;;5.57;;
52033;SDS011;38045;52.988;6.536;2022-08-01T07:14:22;12.68;;;3.72;;
52033;SDS011;38045;52.988;6.536;2022-08-01T07:16:48;13.05;;;3.63;;
52033;SDS011;38045;52.988;6.536;2022-08-01T07:19:14;10.93;;;3.67;;
52033;SDS011;38045;52.988;6.536;2022-08-01T07:21:40;15.95;;;4.65;;
52033;SDS011;38045;52.988;6.536;2022-08-01T07:24:06;12.55;;;3.67;;
52033;SDS011;38045;52.988;6.536;2022-08-01T07:26:33;7.90;;;2.72;;
52033;SDS011;38045;52.988;6.536;2022-08-01T07:28:59;10.05;;;3.15;;
52033;SDS011;38045;52.988;6.536;2022-08-01T07:31:24;16.02;;;3.95;;
52033;SDS011;38045;52.988;6.536;2022-08-01T07:33:50;14.93;;;3.70;;
52033;SDS011;38045;52.988;6.536;2022-08-01T07:36:16;13.80;;;3.40;;
52033;SDS011;38045;52.988;6.536;2022-08-01T07:38:42;16.02;;;5.80;;
52033;SDS011;38045;52.988;6.536;2022-08-01T07:41:08;13.90;;;4.32;;
52033;SDS011;38045;52.988;6.536;2022-08-01T07:43:33;20.35;;;5.03;;
52033;SDS011;38045;52.988;6.536;2022-08-01T07:46:00;11.88;;;3.70;;
52033;SDS011;38045;52.988;6.536;2022-08-01T07:48:29;17.58;;;3.42;;
52033;SDS011;38045;52.988;6.536;2022-08-01T07:50:55;6.43;;;2.25;;
52033;SDS011;38045;52.988;6.536;2022-08-01T07:53:21;11.88;;;3.83;;
52033;SDS011;38045;52.988;6.536;2022-08-01T07:55:47;11.07;;;3.22;;
52033;SDS011;38045;52.988;6.536;2022-08-01T07:58:13;10.60;;;4.43;;
52033;SDS011;38045;52.988;6.536;2022-08-01T08:00:39;12.98;;;3.67;;
52033;SDS011;38045;52.988;6.536;2022-08-01T08:03:05;14.18;;;3.53;;
52033;SDS011;38045;52.988;6.536;2022-08-01T08:05:31;11.40;;;3.22;;
52033;SDS011;38045;52.988;6.536;2022-08-01T08:08:00;15.00;;;4.97;;
52033;SDS011;38045;52.988;6.536;2022-08-01T08:10:35;11.38;;;3.22;;
52033;SDS011;38045;52.988;6.536;2022-08-01T08:13:01;15.05;;;3.65;;
52033;SDS011;38045;52.988;6.536;2022-08-01T08:15:27;11.68;;;2.30;;
52033;SDS011;38045;52.988;6.536;2022-08-01T08:17:53;6.13;;;2.85;;
52033;SDS011;38045;52.988;6.536;2022-08-01T08:20:19;14.63;;;3.63;;
52033;SDS011;38045;52.988;6.536;2022-08-01T08:22:49;6.38;;;2.25;;
52033;SDS011;38045;52.988;6.536;2022-08-01T08:25:15;5.40;;;1.65;;
52033;SDS011;38045;52.988;6.536;2022-08-01T08:27:41;6.65;;;2.63;;
52033;SDS011;38045;52.988;6.536;2022-08-01T08:30:07;13.00;;;3.22;;
52033;SDS011;38045;52.988;6.536;2022-08-01T08:32:33;11.80;;;2.95;;
52033;SDS011;38045;52.988;6.536;2022-08-01T08:35:00;6.85;;;2.40;;
52033;SDS011;38045;52.988;6.536;2022-08-01T08:37:26;9.50;;;2.88;;
52033;SDS011;38045;52.988;6.536;2022-08-01T08:39:52;9.18;;;2.95;;
52033;SDS011;38045;52.988;6.536;2022-08-01T08:42:17;9.35;;;3.00;;
52033;SDS011;38045;52.988;6.536;2022-08-01T08:44:43;8.88;;;2.97;;
52033;SDS011;38045;52.988;6.536;2022-08-01T08:47:13;7.82;;;3.65;;
52033;SDS011;38045;52.988;6.536;2022-08-01T08:49:39;18.65;;;3.88;;
52033;SDS011;38045;52.988;6.536;2022-08-01T08:52:08;14.82;;;3.15;;
52033;SDS011;38045;52.988;6.536;2022-08-01T08:54:35;10.43;;;3.30;;
52033;SDS011;38045;52.988;6.536;2022-08-01T08:57:02;16.00;;;3.40;;
52033;SDS011;38045;52.988;6.536;2022-08-01T08:59:28;10.15;;;2.55;;
52033;SDS011;38045;52.988;6.536;2022-08-01T09:01:55;6.32;;;1.92;;
52033;SDS011;38045;52.988;6.536;2022-08-01T09:04:21;6.70;;;2.28;;
52033;SDS011;38045;52.988;6.536;2022-08-01T09:06:50;11.07;;;3.08;;
52033;SDS011;38045;52.988;6.536;2022-08-01T09:09:16;10.48;;;2.50;;
52033;SDS011;38045;52.988;6.536;2022-08-01T09:11:41;5.32;;;1.60;;
52033;SDS011;38045;52.988;6.536;2022-08-01T09:16:36;5.63;;;1.83;;
52033;SDS011;38045;52.988;6.536;2022-08-01T09:19:08;8.15;;;2.78;;
52033;SDS011;38045;52.988;6.536;2022-08-01T09:21:58;7.40;;;2.03;;
52033;SDS011;38045;52.988;6.536;2022-08-01T09:24:25;5.80;;;1.45;;
52033;SDS011;38045;52.988;6.536;2022-08-01T09:26:53;8.70;;;2.17;;
52033;SDS011;38045;52.988;6.536;2022-08-01T09:29:22;10.07;;;2.67;;
52033;SDS011;38045;52.988;6.536;2022-08-01T09:31:49;4.45;;;2.03;;
52033;SDS011;38045;52.988;6.536;2022-08-01T09:34:16;6.15;;;1.65;;
52033;SDS011;38045;52.988;6.536;2022-08-01T09:36:52;3.55;;;1.58;;
52033;SDS011;38045;52.988;6.536;2022-08-01T09:39:30;9.20;;;1.55;;
52033;SDS011;38045;52.988;6.536;2022-08-01T09:44:48;5.60;;;1.90;;
52033;SDS011;38045;52.988;6.536;2022-08-01T09:47:14;6.85;;;1.83;;
52033;SDS011;38045;52.988;6.536;2022-08-01T09:49:41;6.63;;;1.95;;
52033;SDS011;38045;52.988;6.536;2022-08-01T09:52:12;7.88;;;1.90;;
52033;SDS011;38045;52.988;6.536;2022-08-01T09:54:43;8.30;;;1.65;;
52033;SDS011;38045;52.988;6.536;2022-08-01T09:57:17;3.78;;;0.98;;
52033;SDS011;38045;52.988;6.536;2022-08-01T09:59:45;9.27;;;2.03;;
52033;SDS011;38045;52.988;6.536;2022-08-01T10:02:13;5.22;;;1.45;;
52033;SDS011;38045;52.988;6.536;2022-08-01T10:04:50;9.68;;;2.78;;
52033;SDS011;38045;52.988;6.536;2022-08-01T10:07:17;8.88;;;1.92;;
52033;SDS011;38045;52.988;6.536;2022-08-01T10:09:44;3.80;;;1.13;;
52033;SDS011;38045;52.988;6.536;2022-08-01T10:12:10;3.97;;;1.13;;
52033;SDS011;38045;52.988;6.536;2022-08-01T10:14:39;11.00;;;2.13;;
52033;SDS011;38045;52.988;6.536;2022-08-01T10:17:06;6.60;;;1.63;;
52033;SDS011;38045;52.988;6.536;2022-08-01T10:19:35;7.13;;;1.77;;
52033;SDS011;38045;52.988;6.536;2022-08-01T10:22:03;4.55;;;2.08;;
52033;SDS011;38045;52.988;6.536;2022-08-01T10:24:32;2.88;;;1.77;;
52033;SDS011;38045;52.988;6.536;2022-08-01T10:27:03;3.40;;;1.50;;
52033;SDS011;38045;52.988;6.536;2022-08-01T10:29:35;4.18;;;1.92;;
52033;SDS011;38045;52.988;6.536;2022-08-01T10:32:04;6.22;;;1.60;;
52033;SDS011;38045;52.988;6.536;2022-08-01T10:34:31;6.40;;;1.48;;
52033;SDS011;38045;52.988;6.536;2022-08-01T10:36:58;4.32;;;1.75;;
52033;SDS011;38045;52.988;6.536;2022-08-01T10:39:25;3.97;;;1.13;;
52033;SDS011;38045;52.988;6.536;2022-08-01T10:41:53;9.20;;;1.38;;
52033;SDS011;38045;52.988;6.536;2022-08-01T10:44:20;10.82;;;2.20;;
52033;SDS011;38045;52.988;6.536;2022-08-01T10:46:48;8.73;;;1.50;;
52033;SDS011;38045;52.988;6.536;2022-08-01T10:49:16;6.43;;;1.40;;
52033;SDS011;38045;52.988;6.536;2022-08-01T10:51:45;6.68;;;2.15;;
52033;SDS011;38045;52.988;6.536;2022-08-01T10:54:11;4.35;;;0.80;;
52033;SDS011;38045;52.988;6.536;2022-08-01T10:56:38;6.05;;;2.40;;
52033;SDS011;38045;52.988;6.536;2022-08-01T10:59:07;9.65;;;1.80;;
52033;SDS011;38045;52.988;6.536;2022-08-01T11:01:33;3.28;;;0.90;;
52033;SDS011;38045;52.988;6.536;2022-08-01T11:04:04;3.00;;;1.05;;
52033;SDS011;38045;52.988;6.536;2022-08-01T11:08:58;13.93;;;2.70;;
52033;SDS011;38045;52.988;6.536;2022-08-01T11:11:26;6.00;;;1.37;;
52033;SDS011;38045;52.988;6.536;2022-08-01T11:16:27;3.55;;;1.38;;
52033;SDS011;38045;52.988;6.536;2022-08-01T11:18:54;3.38;;;1.52;;
52033;SDS011;38045;52.988;6.536;2022-08-01T11:21:19;5.20;;;1.67;;
52033;SDS011;38045;52.988;6.536;2022-08-01T11:23:49;4.38;;;1.73;;
52033;SDS011;38045;52.988;6.536;2022-08-01T11:26:18;5.70;;;2.05;;
52033;SDS011;38045;52.988;6.536;2022-08-01T11:28:45;6.45;;;2.50;;
52033;SDS011;38045;52.988;6.536;2022-08-01T11:31:31;5.22;;;1.85;;
52033;SDS011;38045;52.988;6.536;2022-08-01T11:33:58;9.80;;;2.03;;
52033;SDS011;38045;52.988;6.536;2022-08-01T11:36:24;4.82;;;1.70;;
52033;SDS011;38045;52.988;6.536;2022-08-01T11:41:25;8.05;;;1.73;;
52033;SDS011;38045;52.988;6.536;2022-08-01T11:43:54;4.28;;;1.63;;
52033;SDS011;38045;52.988;6.536;2022-08-01T11:46:38;6.95;;;1.60;;
52033;SDS011;38045;52.988;6.536;2022-08-01T11:49:24;5.85;;;2.42;;
52033;SDS011;38045;52.988;6.536;2022-08-01T11:52:06;5.50;;;1.70;;
52033;SDS011;38045;52.988;6.536;2022-08-01T11:54:34;10.48;;;1.83;;
52033;SDS011;38045;52.988;6.536;2022-08-01T11:57:05;7.40;;;1.77;;
52033;SDS011;38045;52.988;6.536;2022-08-01T11:59:52;2.95;;;0.77;;
52033;SDS011;38045;52.988;6.536;2022-08-01T12:07:27;7.43;;;2.05;;
52033;SDS011;38045;52.988;6.536;2022-08-01T12:09:58;7.85;;;1.90;;
52033;SDS011;38045;52.988;6.536;2022-08-01T12:12:27;1.10;;;0.70;;
52033;SDS011;38045;52.988;6.536;2022-08-01T12:14:55;5.22;;;1.25;;
52033;SDS011;38045;52.988;6.536;2022-08-01T12:17:28;6.45;;;1.33;;
52033;SDS011;38045;52.988;6.536;2022-08-01T12:19:54;6.03;;;1.60;;
52033;SDS011;38045;52.988;6.536;2022-08-01T12:22:21;3.88;;;1.15;;
52033;SDS011;38045;52.988;6.536;2022-08-01T12:24:49;6.30;;;1.27;;
52033;SDS011;38045;52.988;6.536;2022-08-01T12:27:30;6.35;;;1.35;;
52033;SDS011;38045;52.988;6.536;2022-08-01T12:29:59;6.88;;;1.48;;
52033;SDS011;38045;52.988;6.536;2022-08-01T12:32:32;5.57;;;1.23;;
52033;SDS011;38045;52.988;6.536;2022-08-01T12:35:05;8.15;;;1.95;;
52033;SDS011;38045;52.988;6.536;2022-08-01T12:37:39;5.68;;;1.17;;
52033;SDS011;38045;52.988;6.536;2022-08-01T12:42:41;8.93;;;1.33;;
52033;SDS011;38045;52.988;6.536;2022-08-01T12:45:08;4.15;;;1.48;;
52033;SDS011;38045;52.988;6.536;2022-08-01T12:47:39;15.10;;;2.67;;
52033;SDS011;38045;52.988;6.536;2022-08-01T12:50:11;4.97;;;1.95;;
52033;SDS011;38045;52.988;6.536;2022-08-01T12:52:39;6.38;;;1.45;;
52033;SDS011;38045;52.988;6.536;2022-08-01T12:57:39;8.30;;;2.05;;
52033;SDS011;38045;52.988;6.536;2022-08-01T13:00:07;1.67;;;1.13;;
52033;SDS011;38045;52.988;6.536;2022-08-01T13:02:42;3.75;;;1.27;;
52033;SDS011;38045;52.988;6.536;2022-08-01T13:05:09;1.95;;;0.90;;
52033;SDS011;38045;52.988;6.536;2022-08-01T13:07:36;6.45;;;1.73;;
52033;SDS011;38045;52.988;6.536;2022-08-01T13:12:30;6.32;;;1.77;;
52033;SDS011;38045;52.988;6.536;2022-08-01T13:14:56;4.63;;;1.17;;
52033;SDS011;38045;52.988;6.536;2022-08-01T13:17:34;6.03;;;0.93;;
52033;SDS011;38045;52.988;6.536;2022-08-01T13:20:02;5.47;;;1.55;;
52033;SDS011;38045;52.988;6.536;2022-08-01T13:22:32;2.50;;;0.90;;
52033;SDS011;38045;52.988;6.536;2022-08-01T13:25:15;4.50;;;1.23;;
52033;SDS011;38045;52.988;6.536;2022-08-01T13:27:41;16.25;;;1.83;;
52033;SDS011;38045;52.988;6.536;2022-08-01T13:30:14;3.28;;;0.88;;
52033;SDS011;38045;52.988;6.536;2022-08-01T13:32:44;5.10;;;1.45;;
52033;SDS011;38045;52.988;6.536;2022-08-01T13:35:27;7.00;;;2.50;;
52033;SDS011;38045;52.988;6.536;2022-08-01T13:37:53;7.57;;;1.30;;
52033;SDS011;38045;52.988;6.536;2022-08-01T13:40:25;4.68;;;1.67;;
52033;SDS011;38045;52.988;6.536;2022-08-01T13:42:52;5.07;;;0.98;;
52033;SDS011;38045;52.988;6.536;2022-08-01T13:45:20;2.70;;;1.25;;
52033;SDS011;38045;52.988;6.536;2022-08-01T13:47:46;3.10;;;1.60;;
52033;SDS011;38045;52.988;6.536;2022-08-01T13:50:11;2.00;;;1.27;;
52033;SDS011;38045;52.988;6.536;2022-08-01T13:52:37;4.55;;;1.05;;
52033;SDS011;38045;52.988;6.536;2022-08-01T13:55:02;6.30;;;2.03;;
52033;SDS011;38045;52.988;6.536;2022-08-01T13:57:28;3.90;;;1.10;;
52033;SDS011;38045;52.988;6.536;2022-08-01T13:59:54;4.93;;;1.40;;
52033;SDS011;38045;52.988;6.536;2022-08-01T14:02:20;6.53;;;1.95;;
52033;SDS011;38045;52.988;6.536;2022-08-01T14:04:45;6.72;;;1.63;;
52033;SDS011;38045;52.988;6.536;2022-08-01T14:07:11;6.30;;;1.15;;
52033;SDS011;38045;52.988;6.536;2022-08-01T14:09:38;4.18;;;1.10;;
52033;SDS011;38045;52.988;6.536;2022-08-01T14:12:03;7.63;;;1.42;;
52033;SDS011;38045;52.988;6.536;2022-08-01T14:14:29;3.83;;;1.15;;
52033;SDS011;38045;52.988;6.536;2022-08-01T14:16:55;6.00;;;1.83;;
52033;SDS011;38045;52.988;6.536;2022-08-01T14:19:21;3.85;;;1.67;;
52033;SDS011;38045;52.988;6.536;2022-08-01T14:21:47;2.95;;;1.15;;
52033;SDS011;38045;52.988;6.536;2022-08-01T14:24:12;5.25;;;1.48;;
52033;SDS011;38045;52.988;6.536;2022-08-01T14:26:38;6.38;;;1.92;;
52033;SDS011;38045;52.988;6.536;2022-08-01T14:29:03;4.65;;;0.75;;
52033;SDS011;38045;52.988;6.536;2022-08-01T14:31:29;6.00;;;1.48;;
52033;SDS011;38045;52.988;6.536;2022-08-01T14:33:55;3.40;;;1.08;;
52033;SDS011;38045;52.988;6.536;2022-08-01T14:36:21;3.95;;;0.82;;
52033;SDS011;38045;52.988;6.536;2022-08-01T14:38:46;2.47;;;1.52;;
52033;SDS011;38045;52.988;6.536;2022-08-01T14:41:13;5.80;;;1.73;;
52033;SDS011;38045;52.988;6.536;2022-08-01T14:43:39;2.60;;;1.15;;
52033;SDS011;38045;52.988;6.536;2022-08-01T14:46:05;7.78;;;2.10;;
52033;SDS011;38045;52.988;6.536;2022-08-01T14:48:32;8.55;;;1.45;;
52033;SDS011;38045;52.988;6.536;2022-08-01T14:50:58;3.38;;;1.20;;
52033;SDS011;38045;52.988;6.536;2022-08-01T14:55:53;4.72;;;1.52;;
52033;SDS011;38045;52.988;6.536;2022-08-01T14:58:18;3.90;;;1.48;;
52033;SDS011;38045;52.988;6.536;2022-08-01T15:00:44;5.05;;;1.38;;
52033;SDS011;38045;52.988;6.536;2022-08-01T15:03:10;1.63;;;0.35;;
52033;SDS011;38045;52.988;6.536;2022-08-01T15:05:35;4.18;;;0.85;;
52033;SDS011;38045;52.988;6.536;2022-08-01T15:08:02;2.08;;;1.05;;
52033;SDS011;38045;52.988;6.536;2022-08-01T15:10:28;2.55;;;1.33;;
52033;SDS011;38045;52.988;6.536;2022-08-01T15:12:53;5.78;;;1.00;;
52033;SDS011;38045;52.988;6.536;2022-08-01T15:15:19;3.00;;;1.42;;
52033;SDS011;38045;52.988;6.536;2022-08-01T15:17:44;8.43;;;1.88;;
52033;SDS011;38045;52.988;6.536;2022-08-01T15:20:10;6.32;;;1.80;;
52033;SDS011;38045;52.988;6.536;2022-08-01T15:22:39;3.17;;;0.90;;
52033;SDS011;38045;52.988;6.536;2022-08-01T15:25:04;10.47;;;2.13;;
52033;SDS011;38045;52.988;6.536;2022-08-01T15:27:30;3.28;;;1.17;;